Date,TemperatureHighF,TemperatureAvgF,TemperatureLowF,DewpointHighF,DewpointAvgF,DewpointLowF,HumidityHigh,HumidityAvg,HumidityLow,PressureMaxIn,PressureMinIn,WindSpeedMaxMPH,WindSpeedAvgMPH,GustSpeedMaxMPH,PrecipitationSumIn
2013-7-1,84,74,68,74,70,67,98,90,66,29.94,29.82,9,0,9,0.17
2013-7-2,86,76,70,75,72,69,98,88,67,30.08,29.93,14,1,14,0.64
2013-7-3,88,77,70,76,72,70,98,85,65,30.16,30.07,13,1,13,0.00
2013-7-4,91,81,72,76,73,71,98,78,57,30.17,30.08,7,1,12,0.00
2013-7-5,93,81,71,77,73,70,96,79,50,30.15,30.04,19,1,19,0.00
2013-7-6,94,81,72,76,73,70,98,78,52,30.14,29.99,14,2,14,0.00
2013-7-7,92,78,70,74,72,70,100,84,52,30.04,29.90,30,2,30,1.06
2013-7-8,83,73,68,73,70,68,100,89,65,30.05,29.98,14,2,16,0.04
2013-7-9,83,74,69,75,71,68,99,90,73,30.06,29.93,14,0,14,0.04
2013-7-10,87,77,68,75,72,65,99,86,63,29.94,29.76,31,2,31,0.26
2013-7-11,86,75,66,69,64,57,100,73,40,29.95,29.79,11,2,11,0.01
2013-7-12,66,65,64,62,62,61,93,90,85,29.99,29.94,5,1,5,0.00
2013-7-14,92,79,68,76,72,67,98,79,51,30.30,30.21,11,1,11,0.00
2013-7-15,96,81,69,76,72,69,99,78,48,30.28,30.14,11,2,11,0.00
2013-7-16,96,82,72,75,72,68,99,75,42,30.26,30.13,11,2,11,0.00
2013-7-17,95,83,71,78,74,69,96,75,52,30.22,30.03,11,2,11,0.00
2013-7-18,97,82,72,78,73,66,95,77,38,30.08,29.95,25,3,25,0.06
2013-7-19,96,82,70,78,72,69,98,75,46,29.99,29.75,19,2,19,0.00
2013-7-20,90,82,77,74,71,66,84,71,47,29.83,29.73,19,3,19,0.00
2013-7-21,90,78,68,70,67,56,94,71,36,29.93,29.83,8,1,8,0.00
2013-7-22,89,75,68,75,70,65,97,85,57,29.91,29.74,13,1,14,1.52
2013-7-23,89,77,71,73,70,64,99,80,47,29.74,29.58,18,3,18,0.01
2013-7-24,77,70,61,64,58,53,89,68,48,29.99,29.65,15,3,16,0.00
2013-7-25,78,66,51,59,54,49,94,69,47,30.06,29.98,11,1,11,0.00
2013-7-26,84,69,55,62,57,54,96,70,40,30.10,29.97,10,2,10,0.00
2013-7-27,76,62,57,65,59,56,95,88,68,30.01,29.96,7,1,7,0.00
2013-7-28,84,75,62,68,63,57,97,68,41,29.95,29.83,18,2,18,0.46
2013-7-29,78,68,56,61,57,52,98,71,45,30.12,29.95,13,3,15,0.00
2013-7-30,79,68,56,63,58,54,96,75,49,30.20,30.10,11,2,11,0.00
2013-7-31,83,70,59,66,62,57,98,77,49,30.15,29.95,9,1,9,0.00